sensor_id;sensor_type;location;lat;lon;timestamp;pressure;altitude;pressure_sealevel;temperature;humidity
30554;BME280;17335;50.720;7.452;2022-07-23T00:00:10;99478.56;;;17.63;100.00
30554;BME280;17335;50.720;7.452;2022-07-23T00:02:37;99477.16;;;17.52;100.00
30554;BME280;17335;50.720;7.452;2022-07-23T00:05:03;99477.16;;;17.52;100.00
30554;BME280;17335;50.720;7.452;2022-07-23T00:07:31;99476.78;;;17.55;100.00
30554;BME280;17335;50.720;7.452;2022-07-23T00:09:58;99485.94;;;17.54;100.00
30554;BME280;17335;50.720;7.452;2022-07-23T00:12:25;99489.69;;;17.53;100.00
30554;BME280;17335;50.720;7.452;2022-07-23T00:14:51;99503.25;;;17.53;100.00
30554;BME280;17335;50.720;7.452;2022-07-23T00:17:18;99502.59;;;17.51;100.00
30554;BME280;17335;50.720;7.452;2022-07-23T00:19:44;99497.53;;;17.48;100.00
30554;BME280;17335;50.720;7.452;2022-07-23T00:22:11;99498.75;;;17.46;100.00
30554;BME280;17335;50.720;7.452;2022-07-23T00:24:38;99497.53;;;17.48;100.00
30554;BME280;17335;50.720;7.452;2022-07-23T00:27:04;99494.63;;;17.50;100.00
30554;BME280;17335;50.720;7.452;2022-07-23T00:29:31;99495.88;;;17.47;100.00
30554;BME280;17335;50.720;7.452;2022-07-23T00:31:58;99491.94;;;17.35;100.00
30554;BME280;17335;50.720;7.452;2022-07-23T00:34:24;99481.06;;;17.35;100.00
30554;BME280;17335;50.720;7.452;2022-07-23T00:36:51;99484.25;;;17.38;100.00
30554;BME280;17335;50.720;7.452;2022-07-23T00:39:20;99480.91;;;17.36;100.00
30554;BME280;17335;50.720;7.452;2022-07-23T00:41:49;99486.09;;;17.38;100.00
30554;BME280;17335;50.720;7.452;2022-07-23T00:44:20;99487.06;;;17.45;100.00
30554;BME280;17335;50.720;7.452;2022-07-23T00:46:50;99486.97;;;17.38;100.00
30554;BME280;17335;50.720;7.452;2022-07-23T00:49:23;99466.47;;;17.36;100.00
30554;BME280;17335;50.720;7.452;2022-07-23T00:51:51;99471.88;;;17.36;100.00
30554;BME280;17335;50.720;7.452;2022-07-23T00:54:18;99455.13;;;17.32;100.00
30554;BME280;17335;50.720;7.452;2022-07-23T00:56:46;99461.69;;;17.23;100.00
30554;BME280;17335;50.720;7.452;2022-07-23T00:59:13;99467.94;;;17.23;100.00
30554;BME280;17335;50.720;7.452;2022-07-23T01:01:40;99486.88;;;17.32;100.00
30554;BME280;17335;50.720;7.452;2022-07-23T01:04:07;99506.59;;;17.25;100.00
30554;BME280;17335;50.720;7.452;2022-07-23T01:06:36;99496.97;;;17.23;100.00
30554;BME280;17335;50.720;7.452;2022-07-23T01:09:05;99490.38;;;17.17;100.00
30554;BME280;17335;50.720;7.452;2022-07-23T01:11:36;99497.28;;;17.05;100.00
30554;BME280;17335;50.720;7.452;2022-07-23T01:14:14;99492.78;;;16.97;100.00
30554;BME280;17335;50.720;7.452;2022-07-23T01:16:42;99494.66;;;16.97;100.00
30554;BME280;17335;50.720;7.452;2022-07-23T01:19:09;99495.97;;;17.01;100.00
30554;BME280;17335;50.720;7.452;2022-07-23T01:21:38;99499.69;;;17.00;100.00
30554;BME280;17335;50.720;7.452;2022-07-23T01:24:06;99493.25;;;17.01;100.00
30554;BME280;17335;50.720;7.452;2022-07-23T01:26:34;99489.31;;;17.03;100.00
30554;BME280;17335;50.720;7.452;2022-07-23T01:29:01;99473.56;;;17.07;100.00
30554;BME280;17335;50.720;7.452;2022-07-23T01:31:29;99456.97;;;17.02;100.00
30554;BME280;17335;50.720;7.452;2022-07-23T01:33:57;99442.84;;;17.06;100.00
30554;BME280;17335;50.720;7.452;2022-07-23T01:36:26;99441.47;;;17.11;100.00
30554;BME280;17335;50.720;7.452;2022-07-23T01:38:52;99441.47;;;17.11;100.00
30554;BME280;17335;50.720;7.452;2022-07-23T01:41:19;99451.75;;;17.15;100.00
30554;BME280;17335;50.720;7.452;2022-07-23T01:43:46;99455.56;;;17.06;100.00
30554;BME280;17335;50.720;7.452;2022-07-23T01:46:13;99449.59;;;17.11;100.00
30554;BME280;17335;50.720;7.452;2022-07-23T01:48:40;99444.81;;;16.98;100.00
30554;BME280;17335;50.720;7.452;2022-07-23T01:51:07;99453.69;;;16.92;100.00
30554;BME280;17335;50.720;7.452;2022-07-23T01:53:34;99454.34;;;16.94;100.00
30554;BME280;17335;50.720;7.452;2022-07-23T01:56:00;99442.44;;;16.95;100.00
30554;BME280;17335;50.720;7.452;2022-07-23T01:58:27;99443.38;;;16.87;100.00
30554;BME280;17335;50.720;7.452;2022-07-23T02:00:54;99444.22;;;16.87;100.00
30554;BME280;17335;50.720;7.452;2022-07-23T02:03:22;99445.56;;;16.92;100.00
30554;BME280;17335;50.720;7.452;2022-07-23T02:05:48;99456.09;;;16.86;100.00
30554;BME280;17335;50.720;7.452;2022-07-23T02:08:16;99450.69;;;16.86;100.00
30554;BME280;17335;50.720;7.452;2022-07-23T02:10:42;99450.13;;;16.83;100.00
30554;BME280;17335;50.720;7.452;2022-07-23T02:13:09;99441.72;;;16.78;100.00
30554;BME280;17335;50.720;7.452;2022-07-23T02:15:45;99444.63;;;16.76;100.00
30554;BME280;17335;50.720;7.452;2022-07-23T02:18:11;99448.66;;;16.80;100.00
30554;BME280;17335;50.720;7.452;2022-07-23T02:20:38;99441.34;;;16.81;100.00
30554;BME280;17335;50.720;7.452;2022-07-23T02:23:05;99439.88;;;16.78;100.00
30554;BME280;17335;50.720;7.452;2022-07-23T02:25:33;99446.13;;;16.79;100.00
30554;BME280;17335;50.720;7.452;2022-07-23T02:28:00;99441.34;;;16.81;100.00
30554;BME280;17335;50.720;7.452;2022-07-23T02:30:26;99436.50;;;16.76;100.00
30554;BME280;17335;50.720;7.452;2022-07-23T02:32:54;99442.28;;;16.73;100.00
30554;BME280;17335;50.720;7.452;2022-07-23T02:35:21;99435.53;;;16.69;100.00
30554;BME280;17335;50.720;7.452;2022-07-23T02:37:48;99445.22;;;16.63;100.00
30554;BME280;17335;50.720;7.452;2022-07-23T02:40:16;99452.34;;;16.64;100.00
30554;BME280;17335;50.720;7.452;2022-07-23T02:42:44;99444.75;;;16.60;100.00
30554;BME280;17335;50.720;7.452;2022-07-23T02:45:12;99444.16;;;16.49;100.00
30554;BME280;17335;50.720;7.452;2022-07-23T02:47:38;99442.84;;;16.45;100.00
30554;BME280;17335;50.720;7.452;2022-07-23T02:50:05;99451.97;;;16.44;100.00
30554;BME280;17335;50.720;7.452;2022-07-23T02:52:33;99452.81;;;16.45;100.00
30554;BME280;17335;50.720;7.452;2022-07-23T02:55:00;99449.31;;;16.36;100.00
30554;BME280;17335;50.720;7.452;2022-07-23T02:57:26;99442.59;;;16.32;100.00
30554;BME280;17335;50.720;7.452;2022-07-23T02:59:53;99447.69;;;16.27;100.00
30554;BME280;17335;50.720;7.452;2022-07-23T03:02:21;99458.22;;;16.22;100.00
30554;BME280;17335;50.720;7.452;2022-07-23T03:04:47;99449.78;;;16.17;100.00
30554;BME280;17335;50.720;7.452;2022-07-23T03:07:16;99457.97;;;16.08;100.00
30554;BME280;17335;50.720;7.452;2022-07-23T03:09:43;99449.03;;;16.00;100.00
30554;BME280;17335;50.720;7.452;2022-07-23T03:12:10;99460.22;;;15.97;100.00
30554;BME280;17335;50.720;7.452;2022-07-23T03:14:42;99457.19;;;15.91;100.00
30554;BME280;17335;50.720;7.452;2022-07-23T03:17:08;99453.69;;;15.83;100.00
30554;BME280;17335;50.720;7.452;2022-07-23T03:19:35;99445.56;;;15.74;100.00
30554;BME280;17335;50.720;7.452;2022-07-23T03:22:03;99443.41;;;15.70;100.00
30554;BME280;17335;50.720;7.452;2022-07-23T03:24:30;99449.34;;;15.65;100.00
30554;BME280;17335;50.720;7.452;2022-07-23T03:27:15;99452.72;;;15.59;100.00
30554;BME280;17335;50.720;7.452;2022-07-23T03:29:42;99447.19;;;15.52;100.00
30554;BME280;17335;50.720;7.452;2022-07-23T03:32:08;99447.03;;;15.46;100.00
30554;BME280;17335;50.720;7.452;2022-07-23T03:34:37;99445.69;;;15.42;100.00
30554;BME280;17335;50.720;7.452;2022-07-23T03:37:04;99450.44;;;15.40;100.00
30554;BME280;17335;50.720;7.452;2022-07-23T03:39:31;99451.44;;;15.38;100.00
30554;BME280;17335;50.720;7.452;2022-07-23T03:41:59;99454.19;;;15.30;100.00
30554;BME280;17335;50.720;7.452;2022-07-23T03:44:25;99462.97;;;15.16;100.00
30554;BME280;17335;50.720;7.452;2022-07-23T03:46:52;99465.88;;;15.06;100.00
30554;BME280;17335;50.720;7.452;2022-07-23T03:49:19;99466.41;;;14.93;100.00
30554;BME280;17335;50.720;7.452;2022-07-23T03:51:45;99470.13;;;14.84;100.00
30554;BME280;17335;50.720;7.452;2022-07-23T03:54:13;99474.50;;;14.85;100.00
30554;BME280;17335;50.720;7.452;2022-07-23T03:56:39;99470.47;;;14.81;100.00
30554;BME280;17335;50.720;7.452;2022-07-23T03:59:06;99479.75;;;14.87;100.00
30554;BME280;17335;50.720;7.452;2022-07-23T04:01:32;99480.25;;;14.90;100.00
30554;BME280;17335;50.720;7.452;2022-07-23T04:03:59;99487.84;;;14.87;100.00
30554;BME280;17335;50.720;7.452;2022-07-23T04:06:25;99484.97;;;14.80;100.00
30554;BME280;17335;50.720;7.452;2022-07-23T04:08:52;99490.72;;;14.77;100.00
30554;BME280;17335;50.720;7.452;2022-07-23T04:11:19;99494.28;;;14.86;100.00
30554;BME280;17335;50.720;7.452;2022-07-23T04:13:45;99501.34;;;14.87;100.00
30554;BME280;17335;50.720;7.452;2022-07-23T04:16:13;99494.78;;;14.89;100.00
30554;BME280;17335;50.720;7.452;2022-07-23T04:18:40;99501.19;;;14.96;100.00
30554;BME280;17335;50.720;7.452;2022-07-23T04:21:07;99503.56;;;14.99;100.00
30554;BME280;17335;50.720;7.452;2022-07-23T04:23:35;99507.63;;;15.04;100.00
30554;BME280;17335;50.720;7.452;2022-07-23T04:26:01;99503.91;;;14.96;100.00
30554;BME280;17335;50.720;7.452;2022-07-23T04:28:28;99504.56;;;14.98;100.00
30554;BME280;17335;50.720;7.452;2022-07-23T04:30:58;99500.53;;;15.03;100.00
30554;BME280;17335;50.720;7.452;2022-07-23T04:33:25;99509.47;;;15.03;100.00
30554;BME280;17335;50.720;7.452;2022-07-23T04:35:52;99510.66;;;15.09;100.00
30554;BME280;17335;50.720;7.452;2022-07-23T04:38:19;99516.38;;;15.06;100.00
30554;BME280;17335;50.720;7.452;2022-07-23T04:40:45;99508.63;;;15.11;100.00
30554;BME280;17335;50.720;7.452;2022-07-23T04:43:12;99518.94;;;15.15;100.00
30554;BME280;17335;50.720;7.452;2022-07-23T04:45:39;99519.44;;;15.19;100.00
30554;BME280;17335;50.720;7.452;2022-07-23T04:48:05;99517.22;;;15.14;100.00
30554;BME280;17335;50.720;7.452;2022-07-23T04:50:32;99527.22;;;15.22;100.00
30554;BME280;17335;50.720;7.452;2022-07-23T04:52:59;99528.22;;;15.29;100.00
30554;BME280;17335;50.720;7.452;2022-07-23T04:55:25;99524.31;;;15.40;100.00
30554;BME280;17335;50.720;7.452;2022-07-23T04:57:52;99525.13;;;15.49;100.00
30554;BME280;17335;50.720;7.452;2022-07-23T05:00:18;99521.75;;;15.55;100.00
30554;BME280;17335;50.720;7.452;2022-07-23T05:02:45;99519.88;;;15.64;100.00
30554;BME280;17335;50.720;7.452;2022-07-23T05:05:12;99527.13;;;15.71;100.00
30554;BME280;17335;50.720;7.452;2022-07-23T05:07:39;99522.56;;;15.72;100.00
30554;BME280;17335;50.720;7.452;2022-07-23T05:10:05;99519.50;;;15.83;100.00
30554;BME280;17335;50.720;7.452;2022-07-23T05:12:32;99531.34;;;15.90;100.00
30554;BME280;17335;50.720;7.452;2022-07-23T05:14:59;99516.75;;;15.91;100.00
30554;BME280;17335;50.720;7.452;2022-07-23T05:17:25;99512.06;;;15.85;100.00
30554;BME280;17335;50.720;7.452;2022-07-23T05:19:52;99523.53;;;15.96;100.00
30554;BME280;17335;50.720;7.452;2022-07-23T05:22:25;99532.81;;;16.01;100.00
30554;BME280;17335;50.720;7.452;2022-07-23T05:24:52;99526.13;;;16.20;100.00
30554;BME280;17335;50.720;7.452;2022-07-23T05:27:19;99524.63;;;16.72;100.00
30554;BME280;17335;50.720;7.452;2022-07-23T05:29:45;99496.69;;;18.22;100.00
30554;BME280;17335;50.720;7.452;2022-07-23T05:32:12;99460.38;;;20.28;100.00
30554;BME280;17335;50.720;7.452;2022-07-23T05:34:38;99448.34;;;20.77;100.00
30554;BME280;17335;50.720;7.452;2022-07-23T05:37:05;99453.78;;;21.30;100.00
30554;BME280;17335;50.720;7.452;2022-07-23T05:39:32;99450.38;;;21.68;100.00
30554;BME280;17335;50.720;7.452;2022-07-23T05:41:59;99453.56;;;21.39;100.00
30554;BME280;17335;50.720;7.452;2022-07-23T05:44:25;99462.94;;;20.36;100.00
30554;BME280;17335;50.720;7.452;2022-07-23T05:47:00;99472.38;;;19.50;100.00
30554;BME280;17335;50.720;7.452;2022-07-23T05:49:26;99491.06;;;19.03;100.00
30554;BME280;17335;50.720;7.452;2022-07-23T05:51:53;99489.63;;;18.86;100.00
30554;BME280;17335;50.720;7.452;2022-07-23T05:54:19;99489.78;;;18.99;100.00
30554;BME280;17335;50.720;7.452;2022-07-23T05:56:46;99488.72;;;18.79;100.00
30554;BME280;17335;50.720;7.452;2022-07-23T05:59:12;99497.91;;;18.78;100.00
30554;BME280;17335;50.720;7.452;2022-07-23T06:01:41;99512.31;;;18.56;100.00
30554;BME280;17335;50.720;7.452;2022-07-23T06:04:13;99521.09;;;18.52;100.00
30554;BME280;17335;50.720;7.452;2022-07-23T06:06:40;99518.38;;;18.37;100.00
30554;BME280;17335;50.720;7.452;2022-07-23T06:09:06;99528.94;;;17.95;100.00
30554;BME280;17335;50.720;7.452;2022-07-23T06:11:34;99523.25;;;18.05;100.00
30554;BME280;17335;50.720;7.452;2022-07-23T06:14:02;99521.00;;;18.09;100.00
30554;BME280;17335;50.720;7.452;2022-07-23T06:16:29;99518.63;;;18.21;100.00
30554;BME280;17335;50.720;7.452;2022-07-23T06:18:56;99514.31;;;18.26;100.00
30554;BME280;17335;50.720;7.452;2022-07-23T06:21:24;99511.75;;;18.61;100.00
30554;BME280;17335;50.720;7.452;2022-07-23T06:24:11;99517.78;;;18.93;100.00
30554;BME280;17335;50.720;7.452;2022-07-23T06:26:38;99515.22;;;19.13;100.00
30554;BME280;17335;50.720;7.452;2022-07-23T06:29:06;99512.59;;;18.98;100.00
30554;BME280;17335;50.720;7.452;2022-07-23T06:31:36;99509.81;;;18.77;100.00
30554;BME280;17335;50.720;7.452;2022-07-23T06:34:03;99523.28;;;19.00;100.00
30554;BME280;17335;50.720;7.452;2022-07-23T06:36:35;99528.22;;;18.96;100.00
30554;BME280;17335;50.720;7.452;2022-07-23T06:39:02;99515.41;;;19.11;100.00
30554;BME280;17335;50.720;7.452;2022-07-23T06:41:30;99520.06;;;19.18;100.00
30554;BME280;17335;50.720;7.452;2022-07-23T06:43:59;99511.28;;;19.16;100.00
30554;BME280;17335;50.720;7.452;2022-07-23T06:46:30;99518.00;;;19.20;100.00
30554;BME280;17335;50.720;7.452;2022-07-23T06:49:00;99519.78;;;19.34;100.00
30554;BME280;17335;50.720;7.452;2022-07-23T06:51:30;99522.28;;;19.29;100.00
30554;BME280;17335;50.720;7.452;2022-07-23T06:53:57;99534.50;;;19.40;100.00
30554;BME280;17335;50.720;7.452;2022-07-23T06:56:25;99523.53;;;19.33;100.00
30554;BME280;17335;50.720;7.452;2022-07-23T06:58:52;99526.09;;;19.13;100.00
30554;BME280;17335;50.720;7.452;2022-07-23T07:01:19;99532.16;;;19.08;100.00
30554;BME280;17335;50.720;7.452;2022-07-23T07:03:46;99534.09;;;18.93;100.00
30554;BME280;17335;50.720;7.452;2022-07-23T07:06:13;99539.69;;;19.13;100.00
30554;BME280;17335;50.720;7.452;2022-07-23T07:08:39;99537.28;;;19.25;100.00
30554;BME280;17335;50.720;7.452;2022-07-23T07:11:06;99531.06;;;19.31;100.00
30554;BME280;17335;50.720;7.452;2022-07-23T07:13:34;99538.78;;;19.27;100.00
30554;BME280;17335;50.720;7.452;2022-07-23T07:16:01;99547.47;;;19.16;100.00
30554;BME280;17335;50.720;7.452;2022-07-23T07:18:28;99544.03;;;19.29;100.00
30554;BME280;17335;50.720;7.452;2022-07-23T07:20:54;99538.63;;;19.36;100.00
30554;BME280;17335;50.720;7.452;2022-07-23T07:23:22;99539.09;;;19.39;100.00
30554;BME280;17335;50.720;7.452;2022-07-23T07:25:49;99533.91;;;19.44;100.00
30554;BME280;17335;50.720;7.452;2022-07-23T07:28:16;99536.22;;;19.47;100.00
30554;BME280;17335;50.720;7.452;2022-07-23T07:30:42;99531.44;;;19.49;100.00
30554;BME280;17335;50.720;7.452;2022-07-23T07:33:09;99537.97;;;19.55;100.00
30554;BME280;17335;50.720;7.452;2022-07-23T07:35:36;99535.28;;;19.62;100.00
30554;BME280;17335;50.720;7.452;2022-07-23T07:38:02;99531.94;;;19.60;100.00
30554;BME280;17335;50.720;7.452;2022-07-23T07:40:29;99534.69;;;19.38;100.00
30554;BME280;17335;50.720;7.452;2022-07-23T07:43:00;99536.22;;;19.47;100.00
30554;BME280;17335;50.720;7.452;2022-07-23T07:45:27;99541.13;;;19.59;100.00
30554;BME280;17335;50.720;7.452;2022-07-23T07:47:54;99553.47;;;19.55;100.00
30554;BME280;17335;50.720;7.452;2022-07-23T07:50:21;99539.91;;;19.68;100.00
30554;BME280;17335;50.720;7.452;2022-07-23T07:52:48;99551.88;;;19.67;100.00
30554;BME280;17335;50.720;7.452;2022-07-23T07:55:15;99544.03;;;19.85;100.00
30554;BME280;17335;50.720;7.452;2022-07-23T07:57:43;99540.78;;;20.03;100.00
30554;BME280;17335;50.720;7.452;2022-07-23T08:00:15;99547.94;;;20.11;100.00
30554;BME280;17335;50.720;7.452;2022-07-23T08:02:46;99553.88;;;20.21;100.00
30554;BME280;17335;50.720;7.452;2022-07-23T08:05:13;99552.56;;;20.11;100.00
30554;BME280;17335;50.720;7.452;2022-07-23T08:07:40;99552.94;;;20.01;100.00
30554;BME280;17335;50.720;7.452;2022-07-23T08:10:08;99552.09;;;20.00;100.00
30554;BME280;17335;50.720;7.452;2022-07-23T08:12:41;99552.53;;;20.04;100.00
30554;BME280;17335;50.720;7.452;2022-07-23T08:15:08;99555.13;;;20.19;100.00
30554;BME280;17335;50.720;7.452;2022-07-23T08:17:40;99552.78;;;20.09;100.00
30554;BME280;17335;50.720;7.452;2022-07-23T08:20:08;99555.41;;;20.31;100.00
30554;BME280;17335;50.720;7.452;2022-07-23T08:22:56;99554.34;;;20.32;100.00
30554;BME280;17335;50.720;7.452;2022-07-23T08:25:26;99558.13;;;20.31;100.00
30554;BME280;17335;50.720;7.452;2022-07-23T08:27:53;99560.25;;;20.42;100.00
30554;BME280;17335;50.720;7.452;2022-07-23T08:30:21;99559.03;;;20.45;100.00
30554;BME280;17335;50.720;7.452;2022-07-23T08:33:08;99560.03;;;20.37;100.00
30554;BME280;17335;50.720;7.452;2022-07-23T08:35:57;99568.50;;;20.55;100.00
30554;BME280;17335;50.720;7.452;2022-07-23T08:38:25;99563.19;;;20.40;100.00
30554;BME280;17335;50.720;7.452;2022-07-23T08:40:53;99571.84;;;20.57;100.00
30554;BME280;17335;50.720;7.452;2022-07-23T08:43:25;99569.44;;;20.76;100.00
30554;BME280;17335;50.720;7.452;2022-07-23T08:45:54;99572.56;;;20.73;100.00
30554;BME280;17335;50.720;7.452;2022-07-23T08:48:26;99574.50;;;20.86;100.00
30554;BME280;17335;50.720;7.452;2022-07-23T08:50:55;99578.09;;;21.00;100.00
30554;BME280;17335;50.720;7.452;2022-07-23T08:53:25;99568.88;;;21.14;100.00
30554;BME280;17335;50.720;7.452;2022-07-23T08:55:54;99564.03;;;21.03;100.00
30554;BME280;17335;50.720;7.452;2022-07-23T08:58:22;99570.53;;;21.02;100.00
30554;BME280;17335;50.720;7.452;2022-07-23T09:00:54;99571.81;;;21.12;100.00
30554;BME280;17335;50.720;7.452;2022-07-23T09:03:28;99574.75;;;21.17;100.00
30554;BME280;17335;50.720;7.452;2022-07-23T09:05:56;99581.91;;;21.19;100.00
30554;BME280;17335;50.720;7.452;2022-07-23T09:08:43;99579.38;;;21.17;100.00
30554;BME280;17335;50.720;7.452;2022-07-23T09:11:13;99579.19;;;21.25;100.00
30554;BME280;17335;50.720;7.452;2022-07-23T09:16:20;99577.09;;;21.41;100.00
30554;BME280;17335;50.720;7.452;2022-07-23T09:21:24;99582.34;;;21.56;100.00
30554;BME280;17335;50.720;7.452;2022-07-23T09:23:57;99576.69;;;21.57;100.00
30554;BME280;17335;50.720;7.452;2022-07-23T09:29:07;99574.78;;;21.78;100.00
30554;BME280;17335;50.720;7.452;2022-07-23T09:31:51;99583.59;;;21.93;100.00
30554;BME280;17335;50.720;7.452;2022-07-23T09:34:32;99583.13;;;22.16;100.00
30554;BME280;17335;50.720;7.452;2022-07-23T09:37:15;99577.56;;;22.50;100.00
30554;BME280;17335;50.720;7.452;2022-07-23T09:39:43;99582.84;;;22.38;100.00
30554;BME280;17335;50.720;7.452;2022-07-23T09:44:44;99585.09;;;22.61;100.00
30554;BME280;17335;50.720;7.452;2022-07-23T09:47:11;99569.91;;;22.65;100.00
30554;BME280;17335;50.720;7.452;2022-07-23T09:49:38;99573.13;;;22.48;100.00
30554;BME280;17335;50.720;7.452;2022-07-23T09:52:05;99572.06;;;22.56;100.00
30554;BME280;17335;50.720;7.452;2022-07-23T09:54:37;99584.38;;;22.72;100.00
30554;BME280;17335;50.720;7.452;2022-07-23T09:57:08;99577.94;;;22.60;100.00
30554;BME280;17335;50.720;7.452;2022-07-23T09:59:39;99578.59;;;22.94;100.00
30554;BME280;17335;50.720;7.452;2022-07-23T10:02:08;99580.19;;;22.76;100.00
30554;BME280;17335;50.720;7.452;2022-07-23T10:04:35;99574.53;;;23.03;100.00
30554;BME280;17335;50.720;7.452;2022-07-23T10:07:05;99580.47;;;23.32;100.00
30554;BME280;17335;50.720;7.452;2022-07-23T10:09:38;99573.09;;;23.57;100.00
30554;BME280;17335;50.720;7.452;2022-07-23T10:12:12;99573.19;;;23.94;100.00
30554;BME280;17335;50.720;7.452;2022-07-23T10:14:40;99568.69;;;23.82;100.00
30554;BME280;17335;50.720;7.452;2022-07-23T10:17:07;99581.63;;;23.93;100.00
30554;BME280;17335;50.720;7.452;2022-07-23T10:19:34;99575.50;;;23.47;100.00
30554;BME280;17335;50.720;7.452;2022-07-23T10:22:04;99574.31;;;23.11;100.00
30554;BME280;17335;50.720;7.452;2022-07-23T10:30:00;99560.34;;;23.19;100.00
30554;BME280;17335;50.720;7.452;2022-07-23T10:32:45;99544.97;;;23.44;100.00
30554;BME280;17335;50.720;7.452;2022-07-23T10:35:33;99559.44;;;23.76;100.00
30554;BME280;17335;50.720;7.452;2022-07-23T10:38:07;99565.66;;;23.65;100.00
30554;BME280;17335;50.720;7.452;2022-07-23T10:40:36;99554.03;;;23.69;100.00
30554;BME280;17335;50.720;7.452;2022-07-23T10:43:13;99545.59;;;23.89;100.00
30554;BME280;17335;50.720;7.452;2022-07-23T10:45:47;99542.78;;;23.96;100.00
30554;BME280;17335;50.720;7.452;2022-07-23T10:51:05;99548.97;;;24.65;100.00
30554;BME280;17335;50.720;7.452;2022-07-23T10:59:04;99542.81;;;24.33;95.15
30554;BME280;17335;50.720;7.452;2022-07-23T11:01:35;99549.81;;;24.29;93.00
30554;BME280;17335;50.720;7.452;2022-07-23T11:04:04;99539.78;;;24.53;98.02
30554;BME280;17335;50.720;7.452;2022-07-23T11:09:29;99548.72;;;24.48;95.47
30554;BME280;17335;50.720;7.452;2022-07-23T11:15:02;99546.81;;;25.09;87.52
30554;BME280;17335;50.720;7.452;2022-07-23T11:17:31;99546.50;;;25.18;84.64
30554;BME280;17335;50.720;7.452;2022-07-23T11:27:50;99532.34;;;25.33;87.59
30554;BME280;17335;50.720;7.452;2022-07-23T11:30:41;99534.47;;;25.42;85.55
30554;BME280;17335;50.720;7.452;2022-07-23T11:35:39;99532.81;;;25.41;80.54
30554;BME280;17335;50.720;7.452;2022-07-23T11:38:17;99525.31;;;25.60;75.76
30554;BME280;17335;50.720;7.452;2022-07-23T11:40:48;99536.88;;;25.62;70.57
30554;BME280;17335;50.720;7.452;2022-07-23T11:43:15;99527.81;;;25.86;70.79
30554;BME280;17335;50.720;7.452;2022-07-23T11:45:48;99529.59;;;26.04;69.58
30554;BME280;17335;50.720;7.452;2022-07-23T11:48:23;99531.63;;;25.85;64.26
30554;BME280;17335;50.720;7.452;2022-07-23T11:50:51;99538.81;;;25.62;65.95
30554;BME280;17335;50.720;7.452;2022-07-23T11:53:25;99524.81;;;25.63;68.91
30554;BME280;17335;50.720;7.452;2022-07-23T11:55:52;99530.56;;;25.62;78.46
30554;BME280;17335;50.720;7.452;2022-07-23T11:58:19;99529.09;;;25.83;64.50
30554;BME280;17335;50.720;7.452;2022-07-23T12:00:46;99534.59;;;25.48;62.53
30554;BME280;17335;50.720;7.452;2022-07-23T12:03:13;99536.16;;;25.43;70.26
30554;BME280;17335;50.720;7.452;2022-07-23T12:05:40;99514.06;;;25.38;68.75
30554;BME280;17335;50.720;7.452;2022-07-23T12:08:09;99529.47;;;25.39;72.77
30554;BME280;17335;50.720;7.452;2022-07-23T12:10:41;99531.38;;;25.51;66.22
30554;BME280;17335;50.720;7.452;2022-07-23T12:13:19;99529.81;;;25.78;66.07
30554;BME280;17335;50.720;7.452;2022-07-23T12:15:48;99529.34;;;25.81;61.95
30554;BME280;17335;50.720;7.452;2022-07-23T12:18:25;99530.56;;;25.74;56.11
30554;BME280;17335;50.720;7.452;2022-07-23T12:20:53;99525.28;;;25.96;64.26
30554;BME280;17335;50.720;7.452;2022-07-23T12:23:24;99532.44;;;25.73;67.82
30554;BME280;17335;50.720;7.452;2022-07-23T12:25:52;99530.66;;;25.91;70.11
30554;BME280;17335;50.720;7.452;2022-07-23T12:28:21;99528.91;;;25.96;68.77
30554;BME280;17335;50.720;7.452;2022-07-23T12:30:53;99525.13;;;26.14;74.21
30554;BME280;17335;50.720;7.452;2022-07-23T12:33:24;99522.50;;;26.08;65.23
30554;BME280;17335;50.720;7.452;2022-07-23T12:35:56;99533.91;;;25.64;65.33
30554;BME280;17335;50.720;7.452;2022-07-23T12:38:27;99534.84;;;25.46;68.27
30554;BME280;17335;50.720;7.452;2022-07-23T12:40:56;99531.88;;;25.95;72.52
30554;BME280;17335;50.720;7.452;2022-07-23T12:43:29;99535.66;;;26.17;67.07
30554;BME280;17335;50.720;7.452;2022-07-23T12:46:03;99531.41;;;26.38;69.84
30554;BME280;17335;50.720;7.452;2022-07-23T12:48:31;99525.19;;;26.43;62.91
30554;BME280;17335;50.720;7.452;2022-07-23T12:51:19;99524.91;;;26.56;64.43
30554;BME280;17335;50.720;7.452;2022-07-23T12:54:08;99516.81;;;26.38;61.49
30554;BME280;17335;50.720;7.452;2022-07-23T12:56:38;99528.66;;;26.79;61.04
30554;BME280;17335;50.720;7.452;2022-07-23T12:59:12;99525.16;;;27.01;68.17
30554;BME280;17335;50.720;7.452;2022-07-23T13:01:45;99528.44;;;26.98;61.85
30554;BME280;17335;50.720;7.452;2022-07-23T13:04:21;99531.94;;;26.93;60.04
30554;BME280;17335;50.720;7.452;2022-07-23T13:06:52;99530.97;;;26.70;59.51
30554;BME280;17335;50.720;7.452;2022-07-23T13:09:24;99533.25;;;26.73;55.88
30554;BME280;17335;50.720;7.452;2022-07-23T13:11:53;99534.91;;;26.74;59.10
30554;BME280;17335;50.720;7.452;2022-07-23T13:14:23;99535.56;;;26.65;61.79
30554;BME280;17335;50.720;7.452;2022-07-23T13:16:53;99540.84;;;26.54;62.23
30554;BME280;17335;50.720;7.452;2022-07-23T13:19:23;99528.38;;;26.11;64.76
30554;BME280;17335;50.720;7.452;2022-07-23T13:21:51;99541.19;;;26.06;65.99
30554;BME280;17335;50.720;7.452;2022-07-23T13:24:18;99539.84;;;26.61;74.33
30554;BME280;17335;50.720;7.452;2022-07-23T13:26:45;99536.88;;;26.62;64.03
30554;BME280;17335;50.720;7.452;2022-07-23T13:29:13;99534.34;;;26.89;66.41
30554;BME280;17335;50.720;7.452;2022-07-23T13:31:43;99540.31;;;26.57;61.41
30554;BME280;17335;50.720;7.452;2022-07-23T13:34:11;99532.19;;;26.91;62.38
30554;BME280;17335;50.720;7.452;2022-07-23T13:36:39;99528.94;;;26.94;61.95
30554;BME280;17335;50.720;7.452;2022-07-23T13:39:06;99527.28;;;27.10;66.51
30554;BME280;17335;50.720;7.452;2022-07-23T13:41:34;99528.28;;;27.04;57.16